sensor_id;sensor_type;location;lat;lon;timestamp;pressure;altitude;pressure_sealevel;temperature
69007;BMP180;56061;51.748;19.620;2022-09-03T00:02:44;99425.00;;;9.80
69007;BMP180;56061;51.748;19.620;2022-09-03T00:08:51;99425.40;;;9.76
69007;BMP180;56061;51.748;19.620;2022-09-03T00:11:52;99423.60;;;9.70
69007;BMP180;56061;51.748;19.620;2022-09-03T00:14:33;99423.20;;;9.70
69007;BMP180;56061;51.748;19.620;2022-09-03T00:17:15;99423.20;;;9.60
69007;BMP180;56061;51.748;19.620;2022-09-03T00:20:05;99419.60;;;9.54
69007;BMP180;56061;51.748;19.620;2022-09-03T00:22:39;99425.80;;;9.50
69007;BMP180;56061;51.748;19.620;2022-09-03T00:25:14;99422.00;;;9.44
69007;BMP180;56061;51.748;19.620;2022-09-03T00:27:47;99419.20;;;9.40
69007;BMP180;56061;51.748;19.620;2022-09-03T00:30:17;99422.00;;;9.40
69007;BMP180;56061;51.748;19.620;2022-09-03T00:33:03;99423.00;;;9.34
69007;BMP180;56061;51.748;19.620;2022-09-03T00:35:50;99417.40;;;9.32
69007;BMP180;56061;51.748;19.620;2022-09-03T00:38:19;99417.80;;;9.30
69007;BMP180;56061;51.748;19.620;2022-09-03T00:48:20;99420.20;;;9.30
69007;BMP180;56061;51.748;19.620;2022-09-03T00:51:27;99414.80;;;9.20
69007;BMP180;56061;51.748;19.620;2022-09-03T00:57:22;99420.00;;;9.10
69007;BMP180;56061;51.748;19.620;2022-09-03T01:00:08;99421.40;;;9.10
69007;BMP180;56061;51.748;19.620;2022-09-03T01:09:02;99419.80;;;9.00
69007;BMP180;56061;51.748;19.620;2022-09-03T01:18:13;99412.40;;;8.96
69007;BMP180;56061;51.748;19.620;2022-09-03T01:20:54;99412.40;;;8.86
69007;BMP180;56061;51.748;19.620;2022-09-03T01:24:02;99418.40;;;8.80
69007;BMP180;56061;51.748;19.620;2022-09-03T01:30:25;99413.20;;;8.80
69007;BMP180;56061;51.748;19.620;2022-09-03T01:33:10;99404.00;;;8.90
69007;BMP180;56061;51.748;19.620;2022-09-03T01:36:11;99405.20;;;8.90
69007;BMP180;56061;51.748;19.620;2022-09-03T01:39:06;99400.00;;;8.90
69007;BMP180;56061;51.748;19.620;2022-09-03T01:42:00;99398.60;;;8.90
69007;BMP180;56061;51.748;19.620;2022-09-03T01:45:17;99405.20;;;8.90
69007;BMP180;56061;51.748;19.620;2022-09-03T01:50:55;99411.20;;;8.80
69007;BMP180;56061;51.748;19.620;2022-09-03T01:56:27;99404.00;;;8.78
69007;BMP180;56061;51.748;19.620;2022-09-03T01:59:08;99404.80;;;8.70
69007;BMP180;56061;51.748;19.620;2022-09-03T02:01:52;99405.20;;;8.70
69007;BMP180;56061;51.748;19.620;2022-09-03T02:04:23;99395.80;;;8.70
69007;BMP180;56061;51.748;19.620;2022-09-03T02:06:53;99396.20;;;8.62
69007;BMP180;56061;51.748;19.620;2022-09-03T02:09:20;99398.20;;;8.60
69007;BMP180;56061;51.748;19.620;2022-09-03T02:12:34;99398.80;;;8.60
69007;BMP180;56061;51.748;19.620;2022-09-03T02:14:54;99397.60;;;8.50
69007;BMP180;56061;51.748;19.620;2022-09-03T02:17:21;99396.60;;;8.50
69007;BMP180;56061;51.748;19.620;2022-09-03T02:19:47;99399.40;;;8.50
69007;BMP180;56061;51.748;19.620;2022-09-03T02:22:14;99399.60;;;8.50
69007;BMP180;56061;51.748;19.620;2022-09-03T02:24:41;99395.20;;;8.50
69007;BMP180;56061;51.748;19.620;2022-09-03T02:27:07;99394.60;;;8.50
69007;BMP180;56061;51.748;19.620;2022-09-03T02:29:34;99400.60;;;8.50
69007;BMP180;56061;51.748;19.620;2022-09-03T02:32:01;99397.40;;;8.50
69007;BMP180;56061;51.748;19.620;2022-09-03T02:34:29;99398.00;;;8.52
69007;BMP180;56061;51.748;19.620;2022-09-03T02:36:55;99400.20;;;8.50
69007;BMP180;56061;51.748;19.620;2022-09-03T02:39:22;99398.00;;;8.50
69007;BMP180;56061;51.748;19.620;2022-09-03T02:41:55;99396.80;;;8.50
69007;BMP180;56061;51.748;19.620;2022-09-03T02:44:32;99399.00;;;8.50
69007;BMP180;56061;51.748;19.620;2022-09-03T02:47:05;99399.60;;;8.50
69007;BMP180;56061;51.748;19.620;2022-09-03T02:49:33;99405.40;;;8.50
69007;BMP180;56061;51.748;19.620;2022-09-03T02:52:03;99402.00;;;8.46
69007;BMP180;56061;51.748;19.620;2022-09-03T02:54:39;99405.20;;;8.40
69007;BMP180;56061;51.748;19.620;2022-09-03T02:57:12;99403.60;;;8.40
69007;BMP180;56061;51.748;19.620;2022-09-03T02:59:40;99405.80;;;8.40
69007;BMP180;56061;51.748;19.620;2022-09-03T03:02:11;99405.20;;;8.30
69007;BMP180;56061;51.748;19.620;2022-09-03T03:04:39;99408.60;;;8.30
69007;BMP180;56061;51.748;19.620;2022-09-03T03:07:06;99400.00;;;8.30
69007;BMP180;56061;51.748;19.620;2022-09-03T03:09:33;99405.00;;;8.22
69007;BMP180;56061;51.748;19.620;2022-09-03T03:11:59;99406.40;;;8.20
69007;BMP180;56061;51.748;19.620;2022-09-03T03:14:26;99402.40;;;8.18
69007;BMP180;56061;51.748;19.620;2022-09-03T03:16:53;99401.60;;;8.10
69007;BMP180;56061;51.748;19.620;2022-09-03T03:19:20;99400.80;;;8.10
69007;BMP180;56061;51.748;19.620;2022-09-03T03:21:46;99399.20;;;8.02
69007;BMP180;56061;51.748;19.620;2022-09-03T03:24:13;99399.80;;;8.00
69007;BMP180;56061;51.748;19.620;2022-09-03T03:26:39;99396.60;;;7.94
69007;BMP180;56061;51.748;19.620;2022-09-03T03:29:06;99399.20;;;7.90
69007;BMP180;56061;51.748;19.620;2022-09-03T03:31:33;99400.60;;;7.90
69007;BMP180;56061;51.748;19.620;2022-09-03T03:34:02;99400.80;;;7.90
69007;BMP180;56061;51.748;19.620;2022-09-03T03:36:32;99401.60;;;7.80
69007;BMP180;56061;51.748;19.620;2022-09-03T03:38:59;99404.80;;;7.80
69007;BMP180;56061;51.748;19.620;2022-09-03T03:41:30;99401.40;;;7.80
69007;BMP180;56061;51.748;19.620;2022-09-03T03:44:01;99404.60;;;7.80
69007;BMP180;56061;51.748;19.620;2022-09-03T03:46:31;99408.00;;;7.72
69007;BMP180;56061;51.748;19.620;2022-09-03T03:48:59;99411.40;;;7.70
69007;BMP180;56061;51.748;19.620;2022-09-03T03:51:27;99408.80;;;7.62
69007;BMP180;56061;51.748;19.620;2022-09-03T03:53:56;99408.40;;;7.60
69007;BMP180;56061;51.748;19.620;2022-09-03T03:56:25;99411.40;;;7.70
69007;BMP180;56061;51.748;19.620;2022-09-03T03:58:53;99411.80;;;7.70
69007;BMP180;56061;51.748;19.620;2022-09-03T04:01:25;99412.40;;;7.70
69007;BMP180;56061;51.748;19.620;2022-09-03T04:03:57;99415.40;;;7.70
69007;BMP180;56061;51.748;19.620;2022-09-03T04:06:26;99420.60;;;7.70
69007;BMP180;56061;51.748;19.620;2022-09-03T04:08:53;99425.80;;;7.70
69007;BMP180;56061;51.748;19.620;2022-09-03T04:11:22;99423.80;;;7.70
69007;BMP180;56061;51.748;19.620;2022-09-03T04:13:50;99427.40;;;7.70
69007;BMP180;56061;51.748;19.620;2022-09-03T04:16:22;99426.00;;;7.70
69007;BMP180;56061;51.748;19.620;2022-09-03T04:18:54;99424.20;;;7.70
69007;BMP180;56061;51.748;19.620;2022-09-03T04:21:27;99427.60;;;7.70
69007;BMP180;56061;51.748;19.620;2022-09-03T04:23:56;99428.80;;;7.70
69007;BMP180;56061;51.748;19.620;2022-09-03T04:26:26;99426.00;;;7.78
69007;BMP180;56061;51.748;19.620;2022-09-03T04:29:03;99428.80;;;7.80
69007;BMP180;56061;51.748;19.620;2022-09-03T04:31:32;99430.00;;;7.80
69007;BMP180;56061;51.748;19.620;2022-09-03T04:33:59;99425.40;;;7.80
69007;BMP180;56061;51.748;19.620;2022-09-03T04:36:28;99424.80;;;7.90
69007;BMP180;56061;51.748;19.620;2022-09-03T04:38:59;99420.60;;;7.90
69007;BMP180;56061;51.748;19.620;2022-09-03T04:41:29;99424.60;;;7.92
69007;BMP180;56061;51.748;19.620;2022-09-03T04:43:58;99420.60;;;8.00
69007;BMP180;56061;51.748;19.620;2022-09-03T04:46:27;99420.00;;;8.00
69007;BMP180;56061;51.748;19.620;2022-09-03T04:48:58;99422.00;;;8.10
69007;BMP180;56061;51.748;19.620;2022-09-03T04:51:27;99425.00;;;8.20
69007;BMP180;56061;51.748;19.620;2022-09-03T04:53:59;99424.80;;;8.30
69007;BMP180;56061;51.748;19.620;2022-09-03T04:56:32;99429.80;;;8.38
69007;BMP180;56061;51.748;19.620;2022-09-03T04:59:07;99429.60;;;8.46
69007;BMP180;56061;51.748;19.620;2022-09-03T05:01:38;99427.00;;;8.50
69007;BMP180;56061;51.748;19.620;2022-09-03T05:04:06;99424.80;;;8.60
69007;BMP180;56061;51.748;19.620;2022-09-03T05:06:35;99431.00;;;8.70
69007;BMP180;56061;51.748;19.620;2022-09-03T05:09:03;99431.00;;;8.80
69007;BMP180;56061;51.748;19.620;2022-09-03T05:11:31;99425.60;;;8.90
69007;BMP180;56061;51.748;19.620;2022-09-03T05:13:58;99422.60;;;9.02
69007;BMP180;56061;51.748;19.620;2022-09-03T05:16:28;99420.60;;;9.20
69007;BMP180;56061;51.748;19.620;2022-09-03T05:18:58;99421.20;;;9.30
69007;BMP180;56061;51.748;19.620;2022-09-03T05:21:27;99427.00;;;9.42
69007;BMP180;56061;51.748;19.620;2022-09-03T05:23:54;99427.20;;;9.60
69007;BMP180;56061;51.748;19.620;2022-09-03T05:26:28;99433.00;;;9.70
69007;BMP180;56061;51.748;19.620;2022-09-03T05:28:59;99434.00;;;9.80
69007;BMP180;56061;51.748;19.620;2022-09-03T05:31:28;99434.60;;;9.90
69007;BMP180;56061;51.748;19.620;2022-09-03T05:34:00;99433.20;;;10.04
69007;BMP180;56061;51.748;19.620;2022-09-03T05:36:35;99426.40;;;10.20
69007;BMP180;56061;51.748;19.620;2022-09-03T05:39:04;99432.60;;;10.30
69007;BMP180;56061;51.748;19.620;2022-09-03T05:41:31;99433.60;;;10.40
69007;BMP180;56061;51.748;19.620;2022-09-03T05:44:00;99437.00;;;10.54
69007;BMP180;56061;51.748;19.620;2022-09-03T05:46:30;99435.80;;;10.62
69007;BMP180;56061;51.748;19.620;2022-09-03T05:49:03;99434.60;;;10.80
69007;BMP180;56061;51.748;19.620;2022-09-03T05:51:31;99427.40;;;10.80
69007;BMP180;56061;51.748;19.620;2022-09-03T05:53:58;99433.40;;;10.80
69007;BMP180;56061;51.748;19.620;2022-09-03T05:56:29;99431.00;;;10.90
69007;BMP180;56061;51.748;19.620;2022-09-03T05:58:59;99431.80;;;11.10
69007;BMP180;56061;51.748;19.620;2022-09-03T06:01:43;99427.20;;;11.20
69007;BMP180;56061;51.748;19.620;2022-09-03T06:04:19;99430.20;;;11.40
69007;BMP180;56061;51.748;19.620;2022-09-03T06:06:47;99432.20;;;11.50
69007;BMP180;56061;51.748;19.620;2022-09-03T06:09:23;99431.20;;;11.60
69007;BMP180;56061;51.748;19.620;2022-09-03T06:11:50;99436.40;;;11.72
69007;BMP180;56061;51.748;19.620;2022-09-03T06:14:18;99438.00;;;11.80
69007;BMP180;56061;51.748;19.620;2022-09-03T06:16:47;99436.00;;;11.92
69007;BMP180;56061;51.748;19.620;2022-09-03T06:19:15;99441.60;;;12.00
69007;BMP180;56061;51.748;19.620;2022-09-03T06:21:44;99448.80;;;12.04
69007;BMP180;56061;51.748;19.620;2022-09-03T06:24:18;99445.60;;;12.10
69007;BMP180;56061;51.748;19.620;2022-09-03T06:26:46;99444.00;;;12.28
69007;BMP180;56061;51.748;19.620;2022-09-03T06:29:15;99442.40;;;12.40
69007;BMP180;56061;51.748;19.620;2022-09-03T06:31:45;99438.60;;;12.50
69007;BMP180;56061;51.748;19.620;2022-09-03T06:34:13;99440.80;;;12.60
69007;BMP180;56061;51.748;19.620;2022-09-03T06:36:41;99442.60;;;12.78
69007;BMP180;56061;51.748;19.620;2022-09-03T06:39:08;99441.20;;;12.90
69007;BMP180;56061;51.748;19.620;2022-09-03T06:41:34;99440.60;;;13.00
69007;BMP180;56061;51.748;19.620;2022-09-03T06:44:05;99441.80;;;13.10
69007;BMP180;56061;51.748;19.620;2022-09-03T06:46:34;99444.00;;;13.20
69007;BMP180;56061;51.748;19.620;2022-09-03T06:49:01;99446.40;;;13.30
69007;BMP180;56061;51.748;19.620;2022-09-03T06:51:31;99448.00;;;13.44
69007;BMP180;56061;51.748;19.620;2022-09-03T06:54:02;99447.60;;;13.60
69007;BMP180;56061;51.748;19.620;2022-09-03T06:56:29;99446.20;;;13.70
69007;BMP180;56061;51.748;19.620;2022-09-03T06:59:13;99441.60;;;13.78
69007;BMP180;56061;51.748;19.620;2022-09-03T07:01:42;99445.20;;;13.90
69007;BMP180;56061;51.748;19.620;2022-09-03T07:04:13;99439.00;;;14.00
69007;BMP180;56061;51.748;19.620;2022-09-03T07:06:45;99438.20;;;14.10
69007;BMP180;56061;51.748;19.620;2022-09-03T07:09:12;99440.00;;;14.20
69007;BMP180;56061;51.748;19.620;2022-09-03T07:11:41;99437.00;;;14.30
69007;BMP180;56061;51.748;19.620;2022-09-03T07:14:16;99437.20;;;14.30
69007;BMP180;56061;51.748;19.620;2022-09-03T07:16:44;99437.00;;;14.40
69007;BMP180;56061;51.748;19.620;2022-09-03T07:19:12;99435.20;;;14.50
69007;BMP180;56061;51.748;19.620;2022-09-03T07:21:40;99436.00;;;14.60
69007;BMP180;56061;51.748;19.620;2022-09-03T07:24:14;99432.20;;;14.70
69007;BMP180;56061;51.748;19.620;2022-09-03T07:26:41;99439.20;;;14.80
69007;BMP180;56061;51.748;19.620;2022-09-03T07:29:16;99438.60;;;14.90
69007;BMP180;56061;51.748;19.620;2022-09-03T07:31:46;99433.80;;;15.00
69007;BMP180;56061;51.748;19.620;2022-09-03T07:34:17;99431.80;;;15.10
69007;BMP180;56061;51.748;19.620;2022-09-03T07:36:46;99435.80;;;15.20
69007;BMP180;56061;51.748;19.620;2022-09-03T07:39:16;99438.40;;;15.30
69007;BMP180;56061;51.748;19.620;2022-09-03T07:41:45;99441.00;;;15.40
69007;BMP180;56061;51.748;19.620;2022-09-03T07:44:16;99435.20;;;15.50
69007;BMP180;56061;51.748;19.620;2022-09-03T07:46:47;99435.80;;;15.60
69007;BMP180;56061;51.748;19.620;2022-09-03T07:49:19;99434.80;;;15.70
69007;BMP180;56061;51.748;19.620;2022-09-03T07:51:46;99436.00;;;15.82
69007;BMP180;56061;51.748;19.620;2022-09-03T07:54:16;99440.60;;;16.00
69007;BMP180;56061;51.748;19.620;2022-09-03T07:56:43;99442.80;;;16.10
69007;BMP180;56061;51.748;19.620;2022-09-03T07:59:09;99437.80;;;16.20
69007;BMP180;56061;51.748;19.620;2022-09-03T08:01:37;99438.40;;;16.30
69007;BMP180;56061;51.748;19.620;2022-09-03T08:04:07;99437.40;;;16.40
69007;BMP180;56061;51.748;19.620;2022-09-03T08:06:36;99439.60;;;16.50
69007;BMP180;56061;51.748;19.620;2022-09-03T08:09:07;99442.80;;;16.50
69007;BMP180;56061;51.748;19.620;2022-09-03T08:11:40;99443.80;;;16.60
69007;BMP180;56061;51.748;19.620;2022-09-03T08:14:10;99447.00;;;16.70
69007;BMP180;56061;51.748;19.620;2022-09-03T08:16:41;99437.20;;;16.70
69007;BMP180;56061;51.748;19.620;2022-09-03T08:19:09;99440.00;;;16.80
69007;BMP180;56061;51.748;19.620;2022-09-03T08:21:36;99435.60;;;16.90
69007;BMP180;56061;51.748;19.620;2022-09-03T08:24:03;99438.00;;;17.00
69007;BMP180;56061;51.748;19.620;2022-09-03T08:26:37;99435.60;;;17.10
69007;BMP180;56061;51.748;19.620;2022-09-03T08:29:05;99435.60;;;17.20
69007;BMP180;56061;51.748;19.620;2022-09-03T08:31:34;99438.60;;;17.20
69007;BMP180;56061;51.748;19.620;2022-09-03T08:34:05;99431.80;;;17.30
69007;BMP180;56061;51.748;19.620;2022-09-03T08:36:38;99430.40;;;17.32
69007;BMP180;56061;51.748;19.620;2022-09-03T08:39:08;99428.40;;;17.48
69007;BMP180;56061;51.748;19.620;2022-09-03T08:45:18;99436.00;;;17.70
69007;BMP180;56061;51.748;19.620;2022-09-03T08:48:03;99436.00;;;17.80
69007;BMP180;56061;51.748;19.620;2022-09-03T08:50:38;99433.20;;;17.84
69007;BMP180;56061;51.748;19.620;2022-09-03T08:53:19;99429.00;;;17.90
69007;BMP180;56061;51.748;19.620;2022-09-03T08:55:53;99426.80;;;17.90
69007;BMP180;56061;51.748;19.620;2022-09-03T08:58:26;99427.80;;;18.00
69007;BMP180;56061;51.748;19.620;2022-09-03T09:17:52;99435.60;;;18.40
69007;BMP180;56061;51.748;19.620;2022-09-03T09:23:07;99439.20;;;18.50
69007;BMP180;56061;51.748;19.620;2022-09-03T09:25:46;99435.80;;;18.50
69007;BMP180;56061;51.748;19.620;2022-09-03T09:30:53;99426.20;;;18.60
69007;BMP180;56061;51.748;19.620;2022-09-03T09:33:22;99420.40;;;18.70
69007;BMP180;56061;51.748;19.620;2022-09-03T09:35:50;99421.40;;;18.70
69007;BMP180;56061;51.748;19.620;2022-09-03T09:38:34;99420.20;;;18.80
69007;BMP180;56061;51.748;19.620;2022-09-03T09:41:19;99417.60;;;18.88
69007;BMP180;56061;51.748;19.620;2022-09-03T09:44:00;99417.40;;;18.90
69007;BMP180;56061;51.748;19.620;2022-09-03T09:46:36;99415.60;;;18.94
69007;BMP180;56061;51.748;19.620;2022-09-03T09:49:31;99413.20;;;19.00
69007;BMP180;56061;51.748;19.620;2022-09-03T09:52:09;99413.80;;;19.00
69007;BMP180;56061;51.748;19.620;2022-09-03T09:54:39;99414.60;;;19.10
69007;BMP180;56061;51.748;19.620;2022-09-03T09:57:16;99410.00;;;19.10
69007;BMP180;56061;51.748;19.620;2022-09-03T09:59:44;99411.00;;;19.20
69007;BMP180;56061;51.748;19.620;2022-09-03T10:02:16;99410.40;;;19.20
69007;BMP180;56061;51.748;19.620;2022-09-03T10:04:48;99414.20;;;19.20
69007;BMP180;56061;51.748;19.620;2022-09-03T10:07:29;99415.80;;;19.30
69007;BMP180;56061;51.748;19.620;2022-09-03T10:10:17;99413.00;;;19.38
69007;BMP180;56061;51.748;19.620;2022-09-03T10:12:52;99411.20;;;19.48
69007;BMP180;56061;51.748;19.620;2022-09-03T10:18:50;99401.80;;;19.52
69007;BMP180;56061;51.748;19.620;2022-09-03T10:21:46;99399.40;;;19.60
69007;BMP180;56061;51.748;19.620;2022-09-03T10:24:51;99399.20;;;19.66
69007;BMP180;56061;51.748;19.620;2022-09-03T10:27:21;99395.20;;;19.70
69007;BMP180;56061;51.748;19.620;2022-09-03T10:29:48;99392.40;;;19.72
69007;BMP180;56061;51.748;19.620;2022-09-03T10:33:04;99393.40;;;19.80
69007;BMP180;56061;51.748;19.620;2022-09-03T10:35:45;99395.60;;;19.82
69007;BMP180;56061;51.748;19.620;2022-09-03T10:38:30;99390.40;;;19.90
69007;BMP180;56061;51.748;19.620;2022-09-03T10:44:14;99382.80;;;19.96
69007;BMP180;56061;51.748;19.620;2022-09-03T10:47:10;99384.60;;;20.00
69007;BMP180;56061;51.748;19.620;2022-09-03T10:55:59;99376.60;;;20.12
69007;BMP180;56061;51.748;19.620;2022-09-03T10:58:52;99380.60;;;20.20
69007;BMP180;56061;51.748;19.620;2022-09-03T11:01:43;99377.20;;;20.30
69007;BMP180;56061;51.748;19.620;2022-09-03T11:04:27;99381.20;;;20.40
69007;BMP180;56061;51.748;19.620;2022-09-03T11:07:03;99378.00;;;20.42
69007;BMP180;56061;51.748;19.620;2022-09-03T11:12:26;99373.80;;;20.50
69007;BMP180;56061;51.748;19.620;2022-09-03T11:15:22;99372.60;;;20.50
69007;BMP180;56061;51.748;19.620;2022-09-03T11:18:15;99367.80;;;20.60
69007;BMP180;56061;51.748;19.620;2022-09-03T11:20:48;99366.40;;;20.70
69007;BMP180;56061;51.748;19.620;2022-09-03T11:23:17;99358.80;;;20.70
69007;BMP180;56061;51.748;19.620;2022-09-03T11:25:53;99357.80;;;20.70
69007;BMP180;56061;51.748;19.620;2022-09-03T11:33:55;99347.20;;;20.88
69007;BMP180;56061;51.748;19.620;2022-09-03T11:36:34;99347.40;;;20.90
69007;BMP180;56061;51.748;19.620;2022-09-03T11:39:19;99344.20;;;20.92
69007;BMP180;56061;51.748;19.620;2022-09-03T11:42:46;99342.40;;;21.00
69007;BMP180;56061;51.748;19.620;2022-09-03T11:44:50;99350.60;;;21.10
69007;BMP180;56061;51.748;19.620;2022-09-03T11:47:37;99348.80;;;21.10
69007;BMP180;56061;51.748;19.620;2022-09-03T11:50:28;99350.80;;;21.10
69007;BMP180;56061;51.748;19.620;2022-09-03T11:53:23;99349.00;;;21.10
69007;BMP180;56061;51.748;19.620;2022-09-03T11:56:15;99351.20;;;21.18
69007;BMP180;56061;51.748;19.620;2022-09-03T11:58:43;99346.40;;;21.30
69007;BMP180;56061;51.748;19.620;2022-09-03T12:01:16;99341.40;;;21.50
69007;BMP180;56061;51.748;19.620;2022-09-03T12:03:52;99346.00;;;21.50
69007;BMP180;56061;51.748;19.620;2022-09-03T12:06:41;99348.60;;;21.40
69007;BMP180;56061;51.748;19.620;2022-09-03T12:18:08;99335.00;;;21.30
69007;BMP180;56061;51.748;19.620;2022-09-03T12:26:00;99323.00;;;21.50
69007;BMP180;56061;51.748;19.620;2022-09-03T12:28:33;99324.20;;;21.70
69007;BMP180;56061;51.748;19.620;2022-09-03T12:31:27;99320.80;;;21.80
69007;BMP180;56061;51.748;19.620;2022-09-03T12:34:09;99317.80;;;21.90
69007;BMP180;56061;51.748;19.620;2022-09-03T12:36:43;99314.20;;;22.00
69007;BMP180;56061;51.748;19.620;2022-09-03T12:39:22;99312.60;;;22.10
69007;BMP180;56061;51.748;19.620;2022-09-03T12:42:19;99313.00;;;22.10
69007;BMP180;56061;51.748;19.620;2022-09-03T12:44:47;99316.40;;;22.10
69007;BMP180;56061;51.748;19.620;2022-09-03T12:47:21;99315.40;;;22.00
69007;BMP180;56061;51.748;19.620;2022-09-03T12:50:18;99310.20;;;22.00
69007;BMP180;56061;51.748;19.620;2022-09-03T12:52:51;99305.00;;;22.20
69007;BMP180;56061;51.748;19.620;2022-09-03T12:55:42;99309.00;;;22.30
69007;BMP180;56061;51.748;19.620;2022-09-03T12:58:15;99311.80;;;22.30
69007;BMP180;56061;51.748;19.620;2022-09-03T13:01:02;99310.20;;;22.40
69007;BMP180;56061;51.748;19.620;2022-09-03T13:03:46;99305.60;;;22.50
69007;BMP180;56061;51.748;19.620;2022-09-03T13:06:20;99302.00;;;22.50
69007;BMP180;56061;51.748;19.620;2022-09-03T13:08:57;99302.40;;;22.58
69007;BMP180;56061;51.748;19.620;2022-09-03T13:11:26;99301.40;;;22.48
69007;BMP180;56061;51.748;19.620;2022-09-03T13:14:02;99305.60;;;22.32
69007;BMP180;56061;51.748;19.620;2022-09-03T13:25:45;99300.00;;;22.30
69007;BMP180;56061;51.748;19.620;2022-09-03T13:34:02;99298.40;;;22.10
69007;BMP180;56061;51.748;19.620;2022-09-03T13:36:44;99290.60;;;22.10
69007;BMP180;56061;51.748;19.620;2022-09-03T13:39:42;99296.20;;;22.22
69007;BMP180;56061;51.748;19.620;2022-09-03T13:42:24;99291.60;;;22.36
69007;BMP180;56061;51.748;19.620;2022-09-03T13:45:55;99294.00;;;22.34
69007;BMP180;56061;51.748;19.620;2022-09-03T13:48:24;99293.00;;;22.30
69007;BMP180;56061;51.748;19.620;2022-09-03T13:51:48;99290.00;;;22.30
69007;BMP180;56061;51.748;19.620;2022-09-03T13:54:38;99287.20;;;22.50
69007;BMP180;56061;51.748;19.620;2022-09-03T13:57:43;99287.60;;;22.80
69007;BMP180;56061;51.748;19.620;2022-09-03T14:00:25;99288.60;;;23.00
69007;BMP180;56061;51.748;19.620;2022-09-03T14:12:18;99287.00;;;22.90
69007;BMP180;56061;51.748;19.620;2022-09-03T14:15:02;99284.40;;;22.88
69007;BMP180;56061;51.748;19.620;2022-09-03T14:18:07;99286.00;;;22.90
69007;BMP180;56061;51.748;19.620;2022-09-03T14:20:46;99285.80;;;22.80
69007;BMP180;56061;51.748;19.620;2022-09-03T14:23:35;99283.40;;;22.70
69007;BMP180;56061;51.748;19.620;2022-09-03T14:26:15;99281.00;;;22.62
69007;BMP180;56061;51.748;19.620;2022-09-03T14:28:57;99280.00;;;22.50
69007;BMP180;56061;51.748;19.620;2022-09-03T14:31:40;99281.40;;;22.40
69007;BMP180;56061;51.748;19.620;2022-09-03T14:38:38;99286.00;;;22.64
69007;BMP180;56061;51.748;19.620;2022-09-03T14:41:02;99277.00;;;22.82
69007;BMP180;56061;51.748;19.620;2022-09-03T14:44:08;99279.80;;;23.00
69007;BMP180;56061;51.748;19.620;2022-09-03T14:52:56;99276.40;;;23.70
69007;BMP180;56061;51.748;19.620;2022-09-03T14:58:33;99271.80;;;23.90
69007;BMP180;56061;51.748;19.620;2022-09-03T15:01:28;99269.80;;;23.80
69007;BMP180;56061;51.748;19.620;2022-09-03T15:07:48;99280.40;;;23.50
69007;BMP180;56061;51.748;19.620;2022-09-03T15:10:31;99281.00;;;23.22
69007;BMP180;56061;51.748;19.620;2022-09-03T15:13:19;99279.40;;;22.90
69007;BMP180;56061;51.748;19.620;2022-09-03T15:19:12;99274.60;;;22.70
69007;BMP180;56061;51.748;19.620;2022-09-03T15:22:11;99272.00;;;22.80
69007;BMP180;56061;51.748;19.620;2022-09-03T15:36:53;99276.80;;;23.10
69007;BMP180;56061;51.748;19.620;2022-09-03T15:39:33;99279.00;;;23.04
69007;BMP180;56061;51.748;19.620;2022-09-03T15:42:13;99275.60;;;23.00
69007;BMP180;56061;51.748;19.620;2022-09-03T15:44:48;99282.80;;;22.90
69007;BMP180;56061;51.748;19.620;2022-09-03T15:47:44;99278.20;;;22.70
69007;BMP180;56061;51.748;19.620;2022-09-03T15:50:34;99280.20;;;22.60
69007;BMP180;56061;51.748;19.620;2022-09-03T15:56:21;99281.00;;;22.08
69007;BMP180;56061;51.748;19.620;2022-09-03T15:59:17;99281.80;;;21.78
69007;BMP180;56061;51.748;19.620;2022-09-03T16:02:49;99276.60;;;21.50
69007;BMP180;56061;51.748;19.620;2022-09-03T16:16:04;99281.20;;;20.80
69007;BMP180;56061;51.748;19.620;2022-09-03T16:21:10;99285.40;;;20.90
69007;BMP180;56061;51.748;19.620;2022-09-03T16:23:57;99291.80;;;21.00
69007;BMP180;56061;51.748;19.620;2022-09-03T16:26:42;99287.80;;;21.00
69007;BMP180;56061;51.748;19.620;2022-09-03T16:29:15;99286.80;;;21.00
69007;BMP180;56061;51.748;19.620;2022-09-03T16:44:24;99289.60;;;20.36
69007;BMP180;56061;51.748;19.620;2022-09-03T16:47:16;99291.00;;;20.10
69007;BMP180;56061;51.748;19.620;2022-09-03T16:52:58;99293.80;;;19.60
69007;BMP180;56061;51.748;19.620;2022-09-03T16:55:55;99291.40;;;19.30
69007;BMP180;56061;51.748;19.620;2022-09-03T16:58:59;99295.80;;;19.08
69007;BMP180;56061;51.748;19.620;2022-09-03T17:08:18;99292.60;;;18.30
69007;BMP180;56061;51.748;19.620;2022-09-03T17:11:20;99294.00;;;18.04
69007;BMP180;56061;51.748;19.620;2022-09-03T17:14:10;99294.20;;;17.80
69007;BMP180;56061;51.748;19.620;2022-09-03T17:25:36;99302.80;;;17.00
69007;BMP180;56061;51.748;19.620;2022-09-03T17:28:13;99308.00;;;16.80
69007;BMP180;56061;51.748;19.620;2022-09-03T17:31:20;99307.20;;;16.60
69007;BMP180;56061;51.748;19.620;2022-09-03T17:34:10;99309.00;;;16.40
69007;BMP180;56061;51.748;19.620;2022-09-03T17:37:28;99310.40;;;16.20
69007;BMP180;56061;51.748;19.620;2022-09-03T17:45:55;99323.00;;;15.70
69007;BMP180;56061;51.748;19.620;2022-09-03T17:48:46;99323.00;;;15.50
69007;BMP180;56061;51.748;19.620;2022-09-03T17:53:54;99317.00;;;15.20
69007;BMP180;56061;51.748;19.620;2022-09-03T17:56:34;99320.00;;;15.04
69007;BMP180;56061;51.748;19.620;2022-09-03T18:01:52;99328.80;;;14.80
69007;BMP180;56061;51.748;19.620;2022-09-03T18:07:42;99330.60;;;14.60
69007;BMP180;56061;51.748;19.620;2022-09-03T18:10:26;99326.40;;;14.50
69007;BMP180;56061;51.748;19.620;2022-09-03T18:16:00;99321.80;;;14.30
69007;BMP180;56061;51.748;19.620;2022-09-03T18:18:42;99322.40;;;14.20
69007;BMP180;56061;51.748;19.620;2022-09-03T18:21:21;99322.20;;;14.10
69007;BMP180;56061;51.748;19.620;2022-09-03T18:24:32;99318.00;;;14.00
69007;BMP180;56061;51.748;19.620;2022-09-03T18:27:27;99319.80;;;13.92
69007;BMP180;56061;51.748;19.620;2022-09-03T18:30:17;99332.00;;;13.90
69007;BMP180;56061;51.748;19.620;2022-09-03T18:33:02;99335.80;;;13.90
69007;BMP180;56061;51.748;19.620;2022-09-03T18:35:48;99335.80;;;13.80
69007;BMP180;56061;51.748;19.620;2022-09-03T18:38:36;99339.80;;;13.80